Time;durP1;ratioP1;P1;durP2;ratioP2;P2;SDS_P1;SDS_P2;PMS_P1;PMS_P2;Temp;Humidity;BMP_temperature;BMP_pressure;BME280_temperature;BME280_humidity;BME280_pressure;Samples;Min_cycle;Max_cycle;Signal;HPM_P1;HPM_P2
2024/03/13 00:02:11;;;;;;;;;;;;;;;22.72;48.17;94320.34;4979260;28;9752;-62
2024/03/13 00:04:58;;;;;;;;;;;;;;;22.72;48.23;94326.59;4978085;28;8687;-62
2024/03/13 00:07:28;;;;;;;;;;;;;;;22.73;47.79;94319.13;4976469;28;8833;-59
2024/03/13 00:10:25;;;;;;;;;;;;;;;22.72;48.18;94325.81;4976883;28;7259;-59
2024/03/13 00:12:54;;;;;;;;;;;;;;;22.69;48.06;94319.34;4896551;29;7259;-59
2024/03/13 00:15:22;;;;;;;;;;;;;;;22.71;47.81;94322.34;4887199;29;9084;-60
2024/03/13 00:17:50;;;;;;;;;;;;;;;22.69;47.99;94321.31;4882636;29;7266;-60
2024/03/13 00:20:16;;;;;;;;;;;;;;;22.71;48.06;94322.34;4907643;29;9052;-60
2024/03/13 00:22:44;;;;;;;;;;;;;;;22.71;48.26;94316.84;4897452;29;9558;-60
2024/03/13 00:25:15;;;;;;;;;;;;;;;22.67;47.94;94310.09;4881450;29;9609;-58
2024/03/13 00:27:41;;;;;;;;;;;;;;;22.70;47.71;94309.88;4921941;28;9423;-58
2024/03/13 00:30:08;;;;;;;;;;;;;;;22.70;47.77;94309.13;4980635;28;9012;-58
2024/03/13 00:33:05;;;;;;;;;;;;;;;22.70;47.97;94309.88;4973257;28;7174;-58
2024/03/13 00:35:43;;;;;;;;;;;;;;;22.66;47.84;94292.94;4885656;29;8219;-58
2024/03/13 00:38:20;;;;;;;;;;;;;;;22.69;48.00;94299.38;4895168;29;9468;-58
2024/03/13 00:40:48;;;;;;;;;;;;;;;22.67;47.96;94301.88;4895813;29;7315;-58
2024/03/13 00:43:23;;;;;;;;;;;;;;;22.69;47.69;94307.63;4892321;29;9152;-58
2024/03/13 00:46:03;;;;;;;;;;;;;;;22.61;47.87;94290.16;4884842;29;7328;-58
2024/03/13 00:48:32;;;;;;;;;;;;;;;22.69;47.90;94296.66;4913709;28;9606;-58
2024/03/13 00:51:04;;;;;;;;;;;;;;;22.67;47.85;94299.88;4993503;28;7339;-58
2024/03/13 00:53:41;;;;;;;;;;;;;;;22.69;47.91;94293.91;4991846;28;9773;-58
2024/03/13 00:56:15;;;;;;;;;;;;;;;22.69;47.68;94297.41;4980930;28;7044;-58
2024/03/13 00:58:52;;;;;;;;;;;;;;;22.69;47.88;94293.91;4975537;28;9053;-58
2024/03/13 01:01:44;;;;;;;;;;;;;;;22.67;47.91;94286.19;4992184;28;7254;-58
2024/03/13 01:04:13;;;;;;;;;;;;;;;22.67;47.71;94288.94;4992929;28;9065;-58
2024/03/13 01:06:41;;;;;;;;;;;;;;;22.67;47.77;94293.66;4987908;28;7016;-58
2024/03/13 01:09:09;;;;;;;;;;;;;;;22.65;47.60;94291.41;4991673;28;9312;-58
2024/03/13 01:11:36;;;;;;;;;;;;;;;22.68;47.56;94289.69;5021326;28;8723;-58
2024/03/13 01:14:05;;;;;;;;;;;;;;;22.68;47.57;94284.19;5088358;28;8770;-59
2024/03/13 01:16:32;;;;;;;;;;;;;;;22.66;47.75;94279.22;5069854;28;8676;-58
2024/03/13 01:18:59;;;;;;;;;;;;;;;22.66;47.55;94281.97;5088000;28;9442;-58
2024/03/13 01:21:25;;;;;;;;;;;;;;;22.66;47.36;94283.94;5080290;28;9557;-58
2024/03/13 01:23:51;;;;;;;;;;;;;;;22.65;47.76;94274.97;5079673;28;7508;-58
2024/03/13 01:26:17;;;;;;;;;;;;;;;22.65;47.42;94272.22;5088301;28;6931;-58
2024/03/13 01:28:43;;;;;;;;;;;;;;;22.65;47.37;94264.00;5087315;28;8763;-58
2024/03/13 01:31:12;;;;;;;;;;;;;;;22.67;47.62;94260.75;5077035;28;8745;-59
2024/03/13 01:34:04;;;;;;;;;;;;;;;22.66;47.32;94253.78;5076191;28;8732;-58
2024/03/13 01:39:21;;;;;;;;;;;;;;;22.64;47.27;94243.28;5077599;28;9407;-63
2024/03/13 01:57:13;;;;;;;;;;;;;;;22.61;47.61;94241.56;5031877;28;9648;-62
2024/03/13 02:02:47;;;;;;;;;;;;;;;22.63;47.45;94244.56;4972025;28;9303;-62
2024/03/13 02:05:45;;;;;;;;;;;;;;;22.63;47.45;94239.06;4976487;28;9486;-62
2024/03/13 02:08:30;;;;;;;;;;;;;;;22.61;47.50;94247.03;4936123;29;9457;-62
2024/03/13 02:11:05;;;;;;;;;;;;;;;22.62;47.32;94236.84;4917968;29;7110;-62
2024/03/13 02:13:40;;;;;;;;;;;;;;;22.62;47.46;94232.09;4929524;29;10869;-62
2024/03/13 02:16:38;;;;;;;;;;;;;;;22.63;47.57;94233.59;4910302;29;9749;-62
2024/03/13 02:19:38;;;;;;;;;;;;;;;22.63;47.39;94230.84;4861863;29;7274;-63
2024/03/13 02:22:06;;;;;;;;;;;;;;;22.63;47.21;94230.84;4841767;29;7484;-63
2024/03/13 02:24:36;;;;;;;;;;;;;;;22.64;47.24;94224.09;4855894;29;8964;-63
2024/03/13 02:27:11;;;;;;;;;;;;;;;22.64;47.31;94217.91;4842812;29;9464;-62
2024/03/13 02:29:42;;;;;;;;;;;;;;;22.64;47.83;94215.16;4846869;29;7355;-63
2024/03/13 02:32:12;;;;;;;;;;;;;;;22.61;47.29;94218.88;4861508;29;9553;-62
2024/03/13 02:34:43;;;;;;;;;;;;;;;22.65;47.41;94213.91;4858504;29;7016;-62
2024/03/13 02:37:09;;;;;;;;;;;;;;;22.61;47.16;94214.16;4888154;29;7090;-62
2024/03/13 02:39:37;;;;;;;;;;;;;;;22.62;47.13;94203.94;4870314;29;9246;-62
2024/03/13 02:42:07;;;;;;;;;;;;;;;22.67;47.03;94205.94;4889313;29;9251;-62
2024/03/13 02:44:54;;;;;;;;;;;;;;;22.66;47.12;94199.72;4899593;28;9232;-63
2024/03/13 02:47:41;;;;;;;;;;;;;;;22.66;47.05;94196.22;4955742;28;7320;-62
2024/03/13 02:50:14;;;;;;;;;;;;;;;22.59;47.12;94183.75;4933441;29;7697;-62
2024/03/13 02:52:40;;;;;;;;;;;;;;;22.64;47.14;94190.50;4935998;28;7270;-62
2024/03/13 02:55:07;;;;;;;;;;;;;;;22.65;47.15;94183.75;4965074;28;9651;-62
2024/03/13 02:57:33;;;;;;;;;;;;;;;22.64;46.97;94179.53;5003169;28;8998;-62
2024/03/13 02:59:59;;;;;;;;;;;;;;;22.63;46.91;94181.50;5090907;28;8679;-62
2024/03/13 03:02:35;;;;;;;;;;;;;;;22.62;47.10;94177.25;5069745;28;9444;-62
2024/03/13 03:05:09;;;;;;;;;;;;;;;22.61;47.15;94173.03;5078569;28;9296;-62
2024/03/13 03:08:08;;;;;;;;;;;;;;;22.63;47.22;94172.53;5091217;28;9144;-62
2024/03/13 03:10:53;;;;;;;;;;;;;;;22.62;47.19;94177.25;5088349;28;7566;-62
2024/03/13 03:13:20;;;;;;;;;;;;;;;22.62;47.35;94171.78;5091473;28;9050;-62
2024/03/13 03:15:51;;;;;;;;;;;;;;;22.62;46.80;94169.03;5077074;28;9216;-62
2024/03/13 03:18:37;;;;;;;;;;;;;;;22.64;46.88;94174.03;5074408;28;9305;-62
2024/03/13 03:21:22;;;;;;;;;;;;;;;22.61;46.78;94178.53;5076019;28;9086;-62
2024/03/13 03:23:49;;;;;;;;;;;;;;;22.63;47.15;94176.03;5081417;28;9930;-62
2024/03/13 03:26:20;;;;;;;;;;;;;;;22.61;46.86;94172.28;5088359;28;9190;-61
2024/03/13 03:28:48;;;;;;;;;;;;;;;22.61;46.89;94175.78;5090440;28;9461;-62
2024/03/13 03:31:21;;;;;;;;;;;;;;;22.62;47.27;94163.56;5085222;28;9474;-62
2024/03/13 03:33:49;;;;;;;;;;;;;;;22.59;47.06;94164.56;5077775;28;9003;-62
2024/03/13 03:36:19;;;;;;;;;;;;;;;22.62;47.28;94165.56;5078667;28;7515;-62
2024/03/13 03:39:10;;;;;;;;;;;;;;;22.62;46.79;94163.56;5090379;28;7125;-62
2024/03/13 03:41:40;;;;;;;;;;;;;;;22.61;47.07;94172.28;5078319;28;8254;-62
2024/03/13 03:44:06;;;;;;;;;;;;;;;22.60;47.08;94157.81;5091686;28;9136;-62
2024/03/13 03:46:40;;;;;;;;;;;;;;;22.62;47.29;94166.28;5075508;28;9338;-62
2024/03/13 03:49:06;;;;;;;;;;;;;;;22.62;46.53;94165.56;5083318;28;9038;-62
2024/03/13 03:51:32;;;;;;;;;;;;;;;22.63;46.88;94167.81;5074743;28;9946;-62
2024/03/13 03:53:59;;;;;;;;;;;;;;;22.63;47.25;94167.81;5071110;28;9112;-62
2024/03/13 03:56:28;;;;;;;;;;;;;;;22.58;47.10;94163.03;5065904;28;7623;-62
2024/03/13 03:58:58;;;;;;;;;;;;;;;22.63;47.33;94167.81;5080131;28;7284;-62
2024/03/13 04:01:32;;;;;;;;;;;;;;;22.64;46.98;94169.28;5090086;28;9137;-62
2024/03/13 04:04:00;;;;;;;;;;;;;;;22.64;47.04;94174.03;5086247;28;8729;-62
2024/03/13 04:06:45;;;;;;;;;;;;;;;22.65;46.95;94167.31;5088067;28;9587;-62
2024/03/13 04:09:15;;;;;;;;;;;;;;;22.65;46.66;94167.31;5068807;28;9100;-62
2024/03/13 04:11:49;;;;;;;;;;;;;;;22.61;46.87;94169.53;5087666;28;7142;-62
2024/03/13 04:14:18;;;;;;;;;;;;;;;22.64;47.22;94180.25;5081040;28;9338;-62
2024/03/13 04:16:47;;;;;;;;;;;;;;;22.58;47.05;94176.72;5089099;28;9693;-62
2024/03/13 04:19:19;;;;;;;;;;;;;;;22.62;47.01;94185.47;5066222;28;7234;-62
2024/03/13 04:21:51;;;;;;;;;;;;;;;22.62;46.77;94187.50;5067416;28;9507;-62
2024/03/13 04:24:19;;;;;;;;;;;;;;;22.64;46.61;94188.47;5086240;28;8996;-63
2024/03/13 04:26:45;;;;;;;;;;;;;;;22.63;47.39;94191.72;5082918;28;7072;-62
2024/03/13 04:29:13;;;;;;;;;;;;;;;22.62;46.82;94192.97;5084287;28;8745;-62
2024/03/13 04:31:39;;;;;;;;;;;;;;;22.64;46.96;94201.44;5073507;28;9451;-62
2024/03/13 04:34:10;;;;;;;;;;;;;;;22.63;46.75;94200.69;5068439;28;7267;-62
2024/03/13 04:36:38;;;;;;;;;;;;;;;22.64;46.63;94204.91;5090632;28;7573;-62
2024/03/13 04:39:05;;;;;;;;;;;;;;;22.65;46.71;94202.94;5075641;28;9675;-62
2024/03/13 04:41:39;;;;;;;;;;;;;;;22.63;46.58;94205.44;5091891;28;8943;-62
2024/03/13 04:44:12;;;;;;;;;;;;;;;22.64;46.57;94204.91;5073191;28;9091;-62
2024/03/13 04:46:38;;;;;;;;;;;;;;;22.64;46.74;94207.66;5077902;28;9138;-62
2024/03/13 04:49:04;;;;;;;;;;;;;;;22.64;46.78;94213.16;5088147;28;9086;-62
2024/03/13 04:51:33;;;;;;;;;;;;;;;22.62;46.83;94207.41;5068539;28;9783;-62
2024/03/13 04:54:07;;;;;;;;;;;;;;;22.61;46.84;94208.66;5082166;28;9435;-62
2024/03/13 04:56:34;;;;;;;;;;;;;;;22.63;46.68;94211.66;5064993;28;7133;-62
2024/03/13 04:59:01;;;;;;;;;;;;;;;22.63;47.02;94217.16;5080333;28;9038;-62
2024/03/13 05:01:30;;;;;;;;;;;;;;;22.63;46.67;94217.16;5064628;28;9096;-62
2024/03/13 05:04:00;;;;;;;;;;;;;;;22.60;46.83;94209.16;5074426;28;9580;-62
2024/03/13 05:06:26;;;;;;;;;;;;;;;22.65;46.41;94211.16;5076550;28;8587;-65
2024/03/13 05:08:56;;;;;;;;;;;;;;;22.65;46.55;94214.66;5077824;28;8992;-65
2024/03/13 05:11:22;;;;;;;;;;;;;;;22.63;46.54;94208.91;5071390;28;9180;-63
2024/03/13 05:13:51;;;;;;;;;;;;;;;22.61;46.67;94207.91;5075260;28;9369;-66
2024/03/13 05:16:18;;;;;;;;;;;;;;;22.57;47.27;94208.13;5069210;28;9527;-66
2024/03/13 05:18:45;;;;;;;;;;;;;;;22.61;46.81;94214.16;5056105;28;9039;-66
2024/03/13 05:21:16;;;;;;;;;;;;;;;22.57;46.87;94213.63;5082917;28;8939;-66
2024/03/13 05:23:42;;;;;;;;;;;;;;;22.61;46.61;94216.13;5073676;28;9096;-64
2024/03/13 05:26:08;;;;;;;;;;;;;;;22.61;46.89;94222.38;5065455;28;9349;-67
2024/03/13 05:28:34;;;;;;;;;;;;;;;22.65;47.07;94222.13;5074093;28;9205;-67
2024/03/13 05:31:16;;;;;;;;;;;;;;;22.65;47.02;94224.88;5071527;28;8891;-67
2024/03/13 05:33:50;;;;;;;;;;;;;;;22.68;46.63;94229.38;5075256;28;9568;-65
2024/03/13 05:36:27;;;;;;;;;;;;;;;22.66;46.85;94234.59;5074490;28;8975;-67
2024/03/13 05:38:58;;;;;;;;;;;;;;;22.63;45.40;94239.06;5084726;28;8971;-67
2024/03/13 05:41:25;;;;;;;;;;;;;;;22.53;44.61;94232.31;5073854;28;7034;-66
2024/03/13 05:43:53;;;;;;;;;;;;;;;22.45;45.87;94225.78;5093178;28;9046;-66
2024/03/13 05:46:48;;;;;;;;;;;;;;;22.52;46.49;94228.81;5083999;28;8992;-67
2024/03/13 05:49:21;;;;;;;;;;;;;;;22.55;46.47;94237.28;5071386;28;9025;-67
2024/03/13 05:51:56;;;;;;;;;;;;;;;22.56;46.87;94234.03;5069693;28;8596;-63
2024/03/13 05:54:29;;;;;;;;;;;;;;;22.56;46.39;94245.00;5078563;28;9176;-66
2024/03/13 05:56:56;;;;;;;;;;;;;;;22.57;47.04;94238.28;5081508;28;9076;-65
2024/03/13 05:59:23;;;;;;;;;;;;;;;22.61;46.90;94246.28;5070999;28;10664;-65
2024/03/13 06:01:50;;;;;;;;;;;;;;;22.60;47.22;94261.97;5066853;28;9413;-64
2024/03/13 06:04:23;;;;;;;;;;;;;;;22.64;47.43;94264.50;5066106;28;9124;-65
2024/03/13 06:06:59;;;;;;;;;;;;;;;22.70;46.96;94257.78;5069189;28;9526;-65
2024/03/13 06:09:28;;;;;;;;;;;;;;;22.73;46.86;94262.28;5067275;28;9117;-65
2024/03/13 06:11:59;;;;;;;;;;;;;;;22.75;46.97;94267.28;5072361;28;7192;-65
2024/03/13 06:14:25;;;;;;;;;;;;;;;22.72;46.58;94257.28;5083247;28;9217;-64
2024/03/13 06:16:51;;;;;;;;;;;;;;;22.77;46.51;94265.50;5077301;28;9014;-65
2024/03/13 06:19:17;;;;;;;;;;;;;;;22.75;45.66;94261.78;5083488;28;7058;-63
2024/03/13 06:21:42;;;;;;;;;;;;;;;22.78;44.50;94266.28;5070337;28;8710;-64
2024/03/13 06:24:09;;;;;;;;;;;;;;;22.81;44.74;94271.53;5082784;28;7020;-65
2024/03/13 06:26:35;;;;;;;;;;;;;;;22.85;44.15;94279.50;5062399;28;9456;-65
2024/03/13 06:31:50;;;;;;;;;;;;;;;22.92;44.99;94277.00;5085663;28;7237;-65
2024/03/13 06:34:24;;;;;;;;;;;;;;;22.97;45.37;94284.50;5082126;28;7134;-65
2024/03/13 06:36:50;;;;;;;;;;;;;;;23.08;44.88;94284.53;5079514;28;9082;-65
2024/03/13 06:39:16;;;;;;;;;;;;;;;23.20;44.69;94291.56;5070155;28;9481;-64
2024/03/13 06:41:50;;;;;;;;;;;;;;;23.31;44.49;94284.56;5077162;28;7010;-63
2024/03/13 06:44:16;;;;;;;;;;;;;;;23.42;44.79;94290.09;5074469;28;9050;-64
2024/03/13 06:46:42;;;;;;;;;;;;;;;23.53;44.31;94295.59;5065691;28;8274;-66
2024/03/13 06:49:08;;;;;;;;;;;;;;;23.67;44.45;94294.56;5066669;28;7237;-65
2024/03/13 06:51:34;;;;;;;;;;;;;;;23.78;44.38;94283.56;5066646;28;9151;-66
2024/03/13 06:54:03;;;;;;;;;;;;;;;23.88;43.68;94287.56;5078178;28;7336;-65
2024/03/13 06:56:29;;;;;;;;;;;;;;;23.96;43.84;94296.78;5082022;28;9020;-65
2024/03/13 06:58:56;;;;;;;;;;;;;;;24.02;43.92;94292.03;5065187;28;9321;-66
2024/03/13 07:01:23;;;;;;;;;;;;;;;24.08;43.41;94297.53;5066096;28;8767;-66
2024/03/13 07:03:52;;;;;;;;;;;;;;;24.11;43.38;94294.53;5074965;28;9910;-66
2024/03/13 07:06:18;;;;;;;;;;;;;;;24.15;43.75;94302.53;5089053;28;9216;-66
2024/03/13 07:08:44;;;;;;;;;;;;;;;24.17;43.58;94303.53;5062559;28;8921;-65
2024/03/13 07:11:15;;;;;;;;;;;;;;;24.18;43.91;94310.53;5072919;28;9111;-66
2024/03/13 07:13:43;;;;;;;;;;;;;;;24.21;43.70;94314.25;5086788;28;9451;-66
2024/03/13 07:16:10;;;;;;;;;;;;;;;24.20;43.47;94308.03;5074596;28;9119;-63
2024/03/13 07:18:38;;;;;;;;;;;;;;;24.21;43.06;94312.25;5083049;28;7056;-62
2024/03/13 07:21:04;;;;;;;;;;;;;;;24.20;43.41;94312.75;5080410;28;9009;-62
2024/03/13 07:23:30;;;;;;;;;;;;;;;24.24;43.14;94319.50;5086335;28;8878;-63
2024/03/13 07:25:56;;;;;;;;;;;;;;;24.21;43.51;94311.50;5092302;28;7130;-62
2024/03/13 07:28:22;;;;;;;;;;;;;;;24.27;43.77;94323.25;5077773;28;9014;-62
2024/03/13 07:30:49;;;;;;;;;;;;;;;24.28;43.84;94330.22;5077533;28;9004;-62
2024/03/13 07:33:15;;;;;;;;;;;;;;;24.29;43.61;94335.25;5077675;28;7053;-63
2024/03/13 07:35:43;;;;;;;;;;;;;;;;;;5076125;28;7188;-63
2024/03/13 07:38:12;;;;;;;;;;;;;;;24.28;43.65;94328.22;5077007;28;9638;-63
2024/03/13 07:40:39;;;;;;;;;;;;;;;24.28;43.51;94336.47;5076178;28;9202;-63
2024/03/13 07:43:09;;;;;;;;;;;;;;;24.28;43.38;94339.22;5073191;28;9151;-62
2024/03/13 07:45:42;;;;;;;;;;;;;;;24.29;43.57;94342.72;5078133;28;9085;-63
2024/03/13 07:48:15;;;;;;;;;;;;;;;24.28;43.52;94336.47;5072874;28;7279;-63
2024/03/13 07:50:47;;;;;;;;;;;;;;;24.29;43.63;94346.22;5077072;28;9126;-62
2024/03/13 07:53:21;;;;;;;;;;;;;;;24.30;43.52;94346.97;5078960;28;7204;-63
2024/03/13 07:55:51;;;;;;;;;;;;;;;24.26;43.46;94343.72;5090824;28;9073;-63
2024/03/13 07:58:17;;;;;;;;;;;;;;;24.30;43.44;94358.72;5086410;28;9113;-63
2024/03/13 08:00:43;;;;;;;;;;;;;;;24.27;43.70;94356.22;5080727;28;7024;-63
2024/03/13 08:03:16;;;;;;;;;;;;;;;24.30;43.85;94357.94;5091773;28;7291;-63
2024/03/13 08:05:51;;;;;;;;;;;;;;;24.29;43.61;94365.47;5090850;28;9015;-63
2024/03/13 08:08:17;;;;;;;;;;;;;;;24.31;43.51;94375.94;5091168;28;8726;-61
2024/03/13 08:10:44;;;;;;;;;;;;;;;24.27;43.70;94370.69;5088223;28;8931;-61
2024/03/13 08:13:10;;;;;;;;;;;;;;;24.32;43.38;94385.69;5073184;28;8806;-60
2024/03/13 08:15:36;;;;;;;;;;;;;;;24.30;43.33;94383.44;5087243;28;7026;-60
2024/03/13 08:18:03;;;;;;;;;;;;;;;24.32;43.49;94389.19;5063636;28;7086;-60
2024/03/13 08:20:36;;;;;;;;;;;;;;;24.30;43.80;94388.94;5089585;28;8904;-60
2024/03/13 08:23:11;;;;;;;;;;;;;;;24.27;43.74;94384.44;5077156;28;9240;-60
2024/03/13 08:25:37;;;;;;;;;;;;;;;24.31;43.30;94389.69;5065822;28;9718;-66
2024/03/13 08:28:03;;;;;;;;;;;;;;;24.32;43.40;94391.19;5065685;28;8961;-66
2024/03/13 08:30:29;;;;;;;;;;;;;;;24.29;43.33;94390.22;5073589;28;8825;-67
2024/03/13 08:33:01;;;;;;;;;;;;;;;24.31;43.55;94395.19;5073435;28;9498;-67
2024/03/13 08:35:45;;;;;;;;;;;;;;;24.31;43.49;94395.19;5089285;28;9095;-67
2024/03/13 08:38:17;;;;;;;;;;;;;;;24.30;43.50;94399.19;5089753;28;9008;-67
2024/03/13 08:41:04;;;;;;;;;;;;;;;24.30;43.75;94402.69;5084367;28;7027;-67
2024/03/13 08:43:37;;;;;;;;;;;;;;;24.29;44.32;94401.19;5062734;28;7232;-66
2024/03/13 08:46:05;;;;;;;;;;;;;;;24.32;44.24;94413.16;5093458;28;7141;-66
2024/03/13 08:48:58;;;;;;;;;;;;;;;24.31;43.66;94415.19;5074848;28;6938;-67
2024/03/13 08:51:34;;;;;;;;;;;;;;;24.31;44.10;94411.69;5068719;28;9211;-66
2024/03/13 08:54:00;;;;;;;;;;;;;;;24.26;43.92;94415.19;5072482;28;9057;-67
2024/03/13 08:56:47;;;;;;;;;;;;;;;24.32;44.23;94424.91;5085420;28;9440;-67
2024/03/13 08:59:13;;;;;;;;;;;;;;;24.27;44.11;94420.16;5093052;28;7562;-67
2024/03/13 09:01:46;;;;;;;;;;;;;;;24.31;44.22;94426.19;5090361;28;9003;-67
2024/03/13 09:04:43;;;;;;;;;;;;;;;24.32;44.00;94424.16;5075593;28;9573;-67
2024/03/13 09:07:34;;;;;;;;;;;;;;;24.32;43.96;94424.16;4968205;28;9272;-66
2024/03/13 09:10:18;;;;;;;;;;;;;;;24.33;44.58;94428.44;4953073;28;10060;-67
2024/03/13 09:12:46;;;;;;;;;;;;;;;24.29;44.33;94425.94;4956360;28;9779;-67
2024/03/13 09:15:24;;;;;;;;;;;;;;;24.32;44.88;94424.91;4956851;28;9143;-67
2024/03/13 09:17:51;;;;;;;;;;;;;;;24.32;44.13;94430.41;4954927;28;9079;-67
2024/03/13 09:20:25;;;;;;;;;;;;;;;24.27;44.50;94422.91;4961688;28;9429;-67
2024/03/13 09:23:12;;;;;;;;;;;;;;;24.32;44.46;94430.41;4946644;28;9281;-67
2024/03/13 09:25:40;;;;;;;;;;;;;;;24.33;44.47;94434.69;4950321;28;9421;-67
2024/03/13 09:28:06;;;;;;;;;;;;;;;24.34;44.48;94438.16;4950842;28;9300;-67
2024/03/13 09:30:33;;;;;;;;;;;;;;;24.34;44.22;94433.41;4955532;28;9060;-67
2024/03/13 09:33:10;;;;;;;;;;;;;;;24.34;44.28;94433.41;4969254;28;9057;-67
2024/03/13 09:35:37;;;;;;;;;;;;;;;24.33;44.03;94431.16;4944788;28;7668;-61
2024/03/13 09:38:15;;;;;;;;;;;;;;;24.27;44.29;94428.41;4956162;28;9135;-60
2024/03/13 09:41:14;;;;;;;;;;;;;;;24.28;45.02;94429.94;4964248;28;7178;-60
2024/03/13 09:43:52;;;;;;;;;;;;;;;24.30;44.33;94430.16;4925867;28;9300;-60
2024/03/13 09:46:44;;;;;;;;;;;;;;;24.30;45.30;94427.41;4989119;28;9466;-60
2024/03/13 09:49:14;;;;;;;;;;;;;;;24.31;45.03;94426.19;4990478;28;8995;-60
2024/03/13 09:51:57;;;;;;;;;;;;;;;24.30;44.86;94427.41;4972234;28;8737;-60
2024/03/13 09:55:01;;;;;;;;;;;;;;;24.31;44.87;94431.69;4982217;28;8714;-60
2024/03/13 09:57:43;;;;;;;;;;;;;;;24.33;44.29;94429.19;4946063;28;7085;-60
2024/03/13 10:00:40;;;;;;;;;;;;;;;24.34;45.29;94429.91;4937985;29;9347;-61
2024/03/13 10:03:31;;;;;;;;;;;;;;;24.35;45.37;94428.66;4953868;29;9030;-60
2024/03/13 10:06:14;;;;;;;;;;;;;;;24.35;45.20;94428.66;4936035;28;8767;-60
2024/03/13 10:09:03;;;;;;;;;;;;;;;24.37;46.08;94431.66;4956719;28;9428;-60
2024/03/13 10:11:46;;;;;;;;;;;;;;;24.38;45.22;94433.19;4952982;28;9101;-61
2024/03/13 10:14:22;;;;;;;;;;;;;;;24.39;45.96;94434.66;4942912;29;9483;-62
2024/03/13 10:16:53;;;;;;;;;;;;;;;24.39;45.29;94435.41;4946511;28;8997;-63
2024/03/13 10:19:27;;;;;;;;;;;;;;;24.39;45.14;94434.66;4952866;28;7102;-62
2024/03/13 10:21:56;;;;;;;;;;;;;;;24.38;49.65;94433.91;5039966;28;9106;-63
2024/03/13 10:24:28;;;;;;;;;;;;;;;24.35;50.31;94434.16;5016012;28;8985;-62
2024/03/13 10:26:56;;;;;;;;;;;;;;;24.36;49.13;94433.66;5012371;28;9125;-62
2024/03/13 10:29:23;;;;;;;;;;;;;;;24.41;48.92;94434.91;5018495;28;8710;-60
2024/03/13 10:32:17;;;;;;;;;;;;;;;24.44;49.27;94439.41;5048683;28;9812;-62
2024/03/13 10:34:46;;;;;;;;;;;;;;;24.43;44.94;94441.41;5084511;28;9667;-63
2024/03/13 10:37:22;;;;;;;;;;;;;;;24.47;43.76;94439.16;5069067;28;8929;-63
2024/03/13 10:39:50;;;;;;;;;;;;;;;24.52;42.93;94432.16;5088455;28;8704;-63
2024/03/13 10:42:21;;;;;;;;;;;;;;;24.53;43.50;94434.38;5067009;28;8280;-60
2024/03/13 10:44:48;;;;;;;;;;;;;;;24.53;43.81;94439.88;5087320;28;9050;-66
2024/03/13 10:47:14;;;;;;;;;;;;;;;24.52;43.10;94432.91;5080291;28;9783;-61
2024/03/13 10:49:59;;;;;;;;;;;;;;;24.52;43.77;94437.63;5085167;28;9099;-62
2024/03/13 10:52:27;;;;;;;;;;;;;;;24.52;43.53;94432.91;5076171;28;9018;-62
2024/03/13 10:55:01;;;;;;;;;;;;;;;24.54;43.98;94438.66;5090916;28;8993;-62
2024/03/13 10:57:29;;;;;;;;;;;;;;;24.54;45.23;94443.38;5071780;28;10097;-62
2024/03/13 11:00:00;;;;;;;;;;;;;;;24.54;45.73;94438.66;5086866;28;9057;-61
2024/03/13 11:02:28;;;;;;;;;;;;;;;24.55;45.43;94436.66;5091457;28;9728;-62
2024/03/13 11:05:27;;;;;;;;;;;;;;;24.54;46.38;94440.63;5079095;28;9163;-61
2024/03/13 11:07:55;;;;;;;;;;;;;;;24.51;45.87;94431.38;5044692;28;8963;-61
2024/03/13 11:10:31;;;;;;;;;;;;;;;24.49;46.21;94433.88;5027465;28;9196;-61
2024/03/13 11:13:13;;;;;;;;;;;;;;;24.40;46.05;94428.66;5039611;28;8995;-64
2024/03/13 11:15:45;;;;;;;;;;;;;;;24.39;45.97;94435.41;5048653;28;9067;-64
2024/03/13 11:18:28;;;;;;;;;;;;;;;24.32;46.14;94427.66;5025769;28;9618;-63
2024/03/13 11:21:03;;;;;;;;;;;;;;;24.23;46.96;94424.44;5027792;28;9258;-63
2024/03/13 11:23:49;;;;;;;;;;;;;;;24.21;46.77;94427.66;5032099;28;9693;-63
2024/03/13 11:26:21;;;;;;;;;;;;;;;24.15;46.71;94426.94;5049181;28;9408;-63
2024/03/13 11:28:55;;;;;;;;;;;;;;;24.13;46.50;94432.19;5035061;28;9873;-63
2024/03/13 11:31:24;;;;;;;;;;;;;;;24.07;46.84;94419.69;5037330;28;9145;-63
2024/03/13 11:33:52;;;;;;;;;;;;;;;23.97;46.71;94410.91;5028294;28;8756;-63
2024/03/13 11:36:20;;;;;;;;;;;;;;;23.97;47.03;94408.16;5035458;28;6963;-60
2024/03/13 11:38:49;;;;;;;;;;;;;;;23.95;46.89;94413.41;5051470;28;7116;-59
2024/03/13 11:41:25;;;;;;;;;;;;;;;23.93;47.31;94421.41;5052514;28;9391;-59
2024/03/13 11:43:58;;;;;;;;;;;;;;;23.90;47.36;94419.66;5056573;28;8663;-60
2024/03/13 11:46:33;;;;;;;;;;;;;;;23.87;47.17;94412.41;5073241;28;9097;-59
2024/03/13 11:49:08;;;;;;;;;;;;;;;23.84;47.37;94413.41;5084670;28;9091;-61
2024/03/13 11:52:01;;;;;;;;;;;;;;;23.83;46.66;94406.44;5081923;28;9406;-61
2024/03/13 11:54:39;;;;;;;;;;;;;;;23.71;46.82;94393.91;5090885;28;7055;-62
2024/03/13 11:57:17;;;;;;;;;;;;;;;23.71;47.35;94399.41;5082185;28;8996;-59
2024/03/13 12:00:27;;;;;;;;;;;;;;;23.73;46.92;94403.16;5064612;28;9590;-59
2024/03/13 12:03:14;;;;;;;;;;;;;;;23.69;47.56;94404.66;5005254;28;9113;-59
2024/03/13 12:05:56;;;;;;;;;;;;;;;23.67;47.34;94404.41;4996911;28;8780;-59
2024/03/13 12:08:32;;;;;;;;;;;;;;;23.67;47.58;94407.16;4991494;28;9411;-59
2024/03/13 12:11:17;;;;;;;;;;;;;;;23.66;47.48;94397.44;5006519;28;8973;-59
2024/03/13 12:13:44;;;;;;;;;;;;;;;23.65;47.74;94395.91;5000887;28;7063;-59
2024/03/13 12:16:30;;;;;;;;;;;;;;;23.66;47.59;94397.44;5014195;28;9413;-58
2024/03/13 12:19:04;;;;;;;;;;;;;;;23.64;47.22;94388.94;5012599;28;9120;-59
2024/03/13 12:21:34;;;;;;;;;;;;;;;23.64;47.78;94391.69;5014605;28;9219;-59
2024/03/13 12:24:02;;;;;;;;;;;;;;;23.63;47.46;94393.69;5011986;28;9079;-59
2024/03/13 12:26:29;;;;;;;;;;;;;;;23.62;47.30;94388.69;4995449;28;7446;-60
2024/03/13 12:28:55;;;;;;;;;;;;;;;23.62;47.31;94391.44;5009187;28;9350;-59
2024/03/13 12:31:21;;;;;;;;;;;;;;;23.62;47.51;94385.94;5006869;28;9104;-60
2024/03/13 12:33:55;;;;;;;;;;;;;;;23.57;47.58;94373.72;4992590;28;9066;-59
2024/03/13 12:36:23;;;;;;;;;;;;;;;23.62;47.77;94383.94;4997017;28;9015;-60
2024/03/13 12:38:51;;;;;;;;;;;;;;;23.61;47.69;94378.94;5051059;28;9342;-60
2024/03/13 12:41:33;;;;;;;;;;;;;;;23.62;47.66;94374.97;5076337;28;9272;-61
2024/03/13 12:44:10;;;;;;;;;;;;;;;23.61;47.57;94374.22;5073685;28;7014;-65
2024/03/13 12:46:55;;;;;;;;;;;;;;;23.61;47.55;94368.72;5060883;28;9281;-65
2024/03/13 12:49:21;;;;;;;;;;;;;;;23.62;47.45;94372.22;5073718;28;9068;-65
2024/03/13 12:52:22;;;;;;;;;;;;;;;23.61;47.71;94365.22;5072971;28;9099;-65
2024/03/13 12:55:04;;;;;;;;;;;;;;;23.53;47.89;94355.97;5032619;28;9451;-65
2024/03/13 12:58:00;;;;;;;;;;;;;;;23.58;48.10;94353.22;5012376;28;9497;-65
2024/03/13 13:01:02;;;;;;;;;;;;;;;23.54;48.11;94351.97;4997663;28;9452;-65
2024/03/13 13:03:57;;;;;;;;;;;;;;;23.54;47.85;94352.72;5004839;28;8989;-66
2024/03/13 13:06:25;;;;;;;;;;;;;;;23.53;47.91;94351.22;5012675;28;7027;-71
2024/03/13 13:09:07;;;;;;;;;;;;;;;23.52;47.38;94348.97;5015243;28;9091;-62
2024/03/13 13:11:40;;;;;;;;;;;;;;;23.51;48.16;94348.22;5016404;28;8995;-70
2024/03/13 13:14:27;;;;;;;;;;;;;;;23.49;47.93;94352.72;5011684;28;8738;-70
2024/03/13 13:17:09;;;;;;;;;;;;;;;23.48;48.37;94354.72;5000925;28;7029;-69
2024/03/13 13:19:46;;;;;;;;;;;;;;;23.44;48.30;94347.97;5031636;28;7192;-70
2024/03/13 13:22:30;;;;;;;;;;;;;;;23.43;48.09;94344.47;5032418;28;9763;-70
2024/03/13 13:24:56;;;;;;;;;;;;;;;23.45;47.56;94355.72;5015806;28;9049;-69
2024/03/13 13:27:22;;;;;;;;;;;;;;;23.42;48.30;94350.47;5017538;28;8758;-69
2024/03/13 13:29:48;;;;;;;;;;;;;;;23.43;47.57;94357.44;5028324;28;9144;-70
2024/03/13 13:32:24;;;;;;;;;;;;;;;23.39;48.03;94345.97;5073680;28;8919;-70
2024/03/13 13:34:54;;;;;;;;;;;;;;;23.40;48.01;94353.72;5073459;28;7366;-70
2024/03/13 13:37:31;;;;;;;;;;;;;;;23.41;47.90;94348.97;5073121;28;9203;-69
2024/03/13 13:40:12;;;;;;;;;;;;;;;23.35;48.29;94339.97;5052955;28;8930;-69
2024/03/13 13:42:52;;;;;;;;;;;;;;;23.41;48.43;94351.72;5069563;28;8996;-70
2024/03/13 13:45:24;;;;;;;;;;;;;;;23.40;48.43;94353.72;5087778;28;6981;-69
2024/03/13 13:47:52;;;;;;;;;;;;;;;23.44;47.81;94356.97;5085123;28;8730;-70
2024/03/13 13:50:19;;;;;;;;;;;;;;;23.43;47.86;94351.97;5076566;28;8740;-70
2024/03/13 13:52:51;;;;;;;;;;;;;;;23.50;47.85;94359.72;5069693;28;8775;-70
2024/03/13 13:55:18;;;;;;;;;;;;;;;23.54;47.56;94363.72;5071065;28;9543;-70